sensor_id;sensor_type;location;lat;lon;timestamp;P1;P2;P0
72467;PMS3003;60626;43.582;1.470;2023-02-15T00:02:00;20.00;16.75;11.50
72467;PMS3003;60626;43.582;1.470;2023-02-15T00:04:27;15.75;14.00;10.00
72467;PMS3003;60626;43.582;1.470;2023-02-15T00:07:16;12.00;10.50;8.00
72467;PMS3003;60626;43.582;1.470;2023-02-15T00:09:45;16.75;16.75;11.50
72467;PMS3003;60626;43.582;1.470;2023-02-15T00:12:12;21.00;17.50;12.75
72467;PMS3003;60626;43.582;1.470;2023-02-15T00:14:40;14.50;14.50;11.50
72467;PMS3003;60626;43.582;1.470;2023-02-15T00:17:06;17.25;16.00;11.75
72467;PMS3003;60626;43.582;1.470;2023-02-15T00:19:33;15.75;14.00;10.50
72467;PMS3003;60626;43.582;1.470;2023-02-15T00:22:00;15.00;13.50;10.00
72467;PMS3003;60626;43.582;1.470;2023-02-15T00:24:26;9.75;9.75;8.50
72467;PMS3003;60626;43.582;1.470;2023-02-15T00:26:53;14.50;13.50;11.00
72467;PMS3003;60626;43.582;1.470;2023-02-15T00:29:20;18.00;16.75;11.25
72467;PMS3003;60626;43.582;1.470;2023-02-15T00:31:47;16.00;14.50;10.25
72467;PMS3003;60626;43.582;1.470;2023-02-15T00:34:21;13.50;13.50;10.00
72467;PMS3003;60626;43.582;1.470;2023-02-15T00:36:49;16.00;14.50;10.50
72467;PMS3003;60626;43.582;1.470;2023-02-15T00:39:17;17.75;15.75;10.50
72467;PMS3003;60626;43.582;1.470;2023-02-15T00:41:44;14.25;12.75;9.75
72467;PMS3003;60626;43.582;1.470;2023-02-15T00:44:12;15.75;14.75;11.50
72467;PMS3003;60626;43.582;1.470;2023-02-15T00:46:39;13.25;13.25;10.50
72467;PMS3003;60626;43.582;1.470;2023-02-15T00:49:06;12.75;12.75;10.75
72467;PMS3003;60626;43.582;1.470;2023-02-15T00:51:33;13.00;11.50;8.50
72467;PMS3003;60626;43.582;1.470;2023-02-15T00:53:59;15.50;15.50;12.25
72467;PMS3003;60626;43.582;1.470;2023-02-15T00:56:26;14.75;13.50;10.00
72467;PMS3003;60626;43.582;1.470;2023-02-15T00:58:54;13.50;13.50;10.50
72467;PMS3003;60626;43.582;1.470;2023-02-15T01:01:21;16.50;14.75;11.50
72467;PMS3003;60626;43.582;1.470;2023-02-15T01:03:49;13.00;13.00;11.75
72467;PMS3003;60626;43.582;1.470;2023-02-15T01:06:16;15.25;13.50;11.25
72467;PMS3003;60626;43.582;1.470;2023-02-15T01:08:44;14.00;12.75;10.25
72467;PMS3003;60626;43.582;1.470;2023-02-15T01:11:13;14.00;14.00;12.00
72467;PMS3003;60626;43.582;1.470;2023-02-15T01:14:07;15.25;15.25;11.75
72467;PMS3003;60626;43.582;1.470;2023-02-15T01:16:34;14.00;13.00;10.00
72467;PMS3003;60626;43.582;1.470;2023-02-15T01:19:01;15.00;13.75;10.75
72467;PMS3003;60626;43.582;1.470;2023-02-15T01:21:28;17.75;15.00;11.00
72467;PMS3003;60626;43.582;1.470;2023-02-15T01:23:56;15.50;14.00;12.75
72467;PMS3003;60626;43.582;1.470;2023-02-15T01:26:22;16.75;15.50;10.50
72467;PMS3003;60626;43.582;1.470;2023-02-15T01:28:49;13.75;13.75;9.50
72467;PMS3003;60626;43.582;1.470;2023-02-15T01:31:17;14.00;13.00;9.25
72467;PMS3003;60626;43.582;1.470;2023-02-15T01:33:46;17.00;15.00;12.00
72467;PMS3003;60626;43.582;1.470;2023-02-15T01:36:13;19.25;17.50;12.50
72467;PMS3003;60626;43.582;1.470;2023-02-15T01:38:40;17.50;15.00;11.25
72467;PMS3003;60626;43.582;1.470;2023-02-15T01:41:08;19.50;14.75;10.00
72467;PMS3003;60626;43.582;1.470;2023-02-15T01:43:51;20.50;15.00;11.00
72467;PMS3003;60626;43.582;1.470;2023-02-15T01:46:22;19.00;14.75;12.00
72467;PMS3003;60626;43.582;1.470;2023-02-15T01:49:09;17.50;17.00;12.00
72467;PMS3003;60626;43.582;1.470;2023-02-15T01:51:54;17.50;16.00;11.00
72467;PMS3003;60626;43.582;1.470;2023-02-15T01:54:23;16.00;14.25;11.00
72467;PMS3003;60626;43.582;1.470;2023-02-15T01:56:58;17.50;15.00;12.00
72467;PMS3003;60626;43.582;1.470;2023-02-15T01:59:28;17.50;15.75;11.00
72467;PMS3003;60626;43.582;1.470;2023-02-15T02:01:58;17.50;16.75;12.00
72467;PMS3003;60626;43.582;1.470;2023-02-15T02:04:35;19.75;16.00;11.50
72467;PMS3003;60626;43.582;1.470;2023-02-15T02:07:10;18.00;17.50;11.25
72467;PMS3003;60626;43.582;1.470;2023-02-15T02:09:40;17.75;16.00;12.00
72467;PMS3003;60626;43.582;1.470;2023-02-15T02:12:07;14.75;14.75;11.75
72467;PMS3003;60626;43.582;1.470;2023-02-15T02:14:35;17.50;15.50;11.00
72467;PMS3003;60626;43.582;1.470;2023-02-15T02:17:08;15.75;15.75;12.00
72467;PMS3003;60626;43.582;1.470;2023-02-15T02:22:40;15.00;15.00;10.25
72467;PMS3003;60626;43.582;1.470;2023-02-15T02:25:23;15.50;14.00;11.00
72467;PMS3003;60626;43.582;1.470;2023-02-15T02:46:54;18.50;14.75;11.50
72467;PMS3003;60626;43.582;1.470;2023-02-15T02:49:31;19.00;16.00;11.75
72467;PMS3003;60626;43.582;1.470;2023-02-15T02:52:06;16.50;15.50;12.50
72467;PMS3003;60626;43.582;1.470;2023-02-15T02:54:53;18.25;18.00;13.00
72467;PMS3003;60626;43.582;1.470;2023-02-15T02:57:22;15.25;15.25;12.00
72467;PMS3003;60626;43.582;1.470;2023-02-15T02:59:50;21.00;18.00;12.00
72467;PMS3003;60626;43.582;1.470;2023-02-15T03:02:22;16.00;14.75;10.25
72467;PMS3003;60626;43.582;1.470;2023-02-15T03:04:55;16.75;16.25;13.00
72467;PMS3003;60626;43.582;1.470;2023-02-15T03:07:29;14.75;14.00;10.50
72467;PMS3003;60626;43.582;1.470;2023-02-15T03:09:58;19.50;17.50;12.00
72467;PMS3003;60626;43.582;1.470;2023-02-15T03:12:27;21.75;17.50;11.75
72467;PMS3003;60626;43.582;1.470;2023-02-15T03:15:05;18.50;16.50;12.50
72467;PMS3003;60626;43.582;1.470;2023-02-15T03:17:36;19.50;17.00;12.00
72467;PMS3003;60626;43.582;1.470;2023-02-15T03:20:09;16.75;16.75;13.00
72467;PMS3003;60626;43.582;1.470;2023-02-15T03:22:54;17.00;14.75;11.75
72467;PMS3003;60626;43.582;1.470;2023-02-15T03:25:42;20.75;18.00;13.00
72467;PMS3003;60626;43.582;1.470;2023-02-15T03:28:19;24.50;22.00;15.00
72467;PMS3003;60626;43.582;1.470;2023-02-15T03:30:52;19.00;17.50;12.00
72467;PMS3003;60626;43.582;1.470;2023-02-15T03:33:23;22.25;20.25;13.75
72467;PMS3003;60626;43.582;1.470;2023-02-15T03:35:59;18.25;16.00;12.75
72467;PMS3003;60626;43.582;1.470;2023-02-15T03:38:42;18.00;18.00;13.00
72467;PMS3003;60626;43.582;1.470;2023-02-15T03:41:16;19.00;17.75;12.75
72467;PMS3003;60626;43.582;1.470;2023-02-15T03:43:59;17.50;13.75;12.00
72467;PMS3003;60626;43.582;1.470;2023-02-15T03:47:15;21.25;19.50;13.25
72467;PMS3003;60626;43.582;1.470;2023-02-15T03:49:29;21.00;18.00;13.00
72467;PMS3003;60626;43.582;1.470;2023-02-15T03:52:02;25.50;18.50;13.50
72467;PMS3003;60626;43.582;1.470;2023-02-15T03:54:33;20.25;18.75;12.00
72467;PMS3003;60626;43.582;1.470;2023-02-15T04:06:03;19.75;17.25;13.00
72467;PMS3003;60626;43.582;1.470;2023-02-15T04:08:30;15.00;15.00;11.00
72467;PMS3003;60626;43.582;1.470;2023-02-15T04:11:15;23.25;21.50;14.50
72467;PMS3003;60626;43.582;1.470;2023-02-15T04:13:41;21.00;19.25;15.50
72467;PMS3003;60626;43.582;1.470;2023-02-15T04:16:08;20.50;19.50;14.00
72467;PMS3003;60626;43.582;1.470;2023-02-15T04:18:36;19.00;17.25;12.75
72467;PMS3003;60626;43.582;1.470;2023-02-15T04:21:23;20.50;19.50;14.00
72467;PMS3003;60626;43.582;1.470;2023-02-15T04:24:10;21.50;19.00;13.50
72467;PMS3003;60626;43.582;1.470;2023-02-15T04:26:57;21.50;19.00;14.50
72467;PMS3003;60626;43.582;1.470;2023-02-15T04:29:24;22.00;17.75;14.25
72467;PMS3003;60626;43.582;1.470;2023-02-15T04:31:52;15.50;15.50;11.00
72467;PMS3003;60626;43.582;1.470;2023-02-15T04:34:19;17.75;17.25;13.50
72467;PMS3003;60626;43.582;1.470;2023-02-15T04:36:46;20.00;19.00;14.50
72467;PMS3003;60626;43.582;1.470;2023-02-15T04:39:13;18.75;18.75;13.75
72467;PMS3003;60626;43.582;1.470;2023-02-15T04:41:41;21.25;16.75;13.00
72467;PMS3003;60626;43.582;1.470;2023-02-15T04:44:07;18.00;18.00;13.50
72467;PMS3003;60626;43.582;1.470;2023-02-15T04:46:34;17.25;15.75;12.00
72467;PMS3003;60626;43.582;1.470;2023-02-15T04:49:01;20.50;19.00;14.00
72467;PMS3003;60626;43.582;1.470;2023-02-15T04:51:28;21.75;18.25;13.25
72467;PMS3003;60626;43.582;1.470;2023-02-15T04:53:55;21.25;18.25;13.00
72467;PMS3003;60626;43.582;1.470;2023-02-15T04:56:23;20.00;18.00;12.00
72467;PMS3003;60626;43.582;1.470;2023-02-15T04:58:49;17.25;17.25;14.25
72467;PMS3003;60626;43.582;1.470;2023-02-15T05:01:16;20.25;18.25;14.25
72467;PMS3003;60626;43.582;1.470;2023-02-15T05:03:43;17.00;17.00;13.00
72467;PMS3003;60626;43.582;1.470;2023-02-15T05:06:10;18.00;16.25;12.75
72467;PMS3003;60626;43.582;1.470;2023-02-15T05:08:37;16.75;16.75;12.00
72467;PMS3003;60626;43.582;1.470;2023-02-15T05:11:03;22.25;20.75;13.75
72467;PMS3003;60626;43.582;1.470;2023-02-15T05:13:30;18.75;17.75;15.00
72467;PMS3003;60626;43.582;1.470;2023-02-15T05:15:56;18.00;18.00;13.25
72467;PMS3003;60626;43.582;1.470;2023-02-15T05:18:23;20.00;18.75;14.25
72467;PMS3003;60626;43.582;1.470;2023-02-15T05:20:50;17.00;17.00;14.25
72467;PMS3003;60626;43.582;1.470;2023-02-15T05:23:16;20.50;20.50;13.25
72467;PMS3003;60626;43.582;1.470;2023-02-15T05:25:47;21.25;21.25;16.00
72467;PMS3003;60626;43.582;1.470;2023-02-15T05:28:33;17.75;17.75;14.00
72467;PMS3003;60626;43.582;1.470;2023-02-15T05:33:34;21.75;19.75;14.75
72467;PMS3003;60626;43.582;1.470;2023-02-15T05:36:01;23.75;22.00;14.75
72467;PMS3003;60626;43.582;1.470;2023-02-15T05:38:29;22.50;17.50;13.75
72467;PMS3003;60626;43.582;1.470;2023-02-15T05:40:55;19.00;19.00;15.50
72467;PMS3003;60626;43.582;1.470;2023-02-15T05:43:22;26.75;22.25;14.50
72467;PMS3003;60626;43.582;1.470;2023-02-15T05:45:50;27.00;21.50;15.00
72467;PMS3003;60626;43.582;1.470;2023-02-15T05:48:19;24.50;19.25;14.25
72467;PMS3003;60626;43.582;1.470;2023-02-15T05:50:56;20.75;18.50;13.50
72467;PMS3003;60626;43.582;1.470;2023-02-15T05:53:34;18.50;18.00;13.00
72467;PMS3003;60626;43.582;1.470;2023-02-15T05:56:05;20.00;18.00;15.00
72467;PMS3003;60626;43.582;1.470;2023-02-15T05:58:35;19.50;17.25;13.00
72467;PMS3003;60626;43.582;1.470;2023-02-15T06:01:07;20.00;19.25;14.25
72467;PMS3003;60626;43.582;1.470;2023-02-15T06:03:37;19.00;17.25;12.00
72467;PMS3003;60626;43.582;1.470;2023-02-15T06:06:04;16.75;16.75;12.25
72467;PMS3003;60626;43.582;1.470;2023-02-15T06:08:33;19.25;17.00;12.75
72467;PMS3003;60626;43.582;1.470;2023-02-15T06:11:01;19.25;19.25;14.50
72467;PMS3003;60626;43.582;1.470;2023-02-15T06:13:27;22.75;18.00;14.00
72467;PMS3003;60626;43.582;1.470;2023-02-15T06:15:54;20.75;16.75;13.25
72467;PMS3003;60626;43.582;1.470;2023-02-15T06:18:21;20.50;18.00;12.50
72467;PMS3003;60626;43.582;1.470;2023-02-15T06:20:48;22.75;19.75;14.50
72467;PMS3003;60626;43.582;1.470;2023-02-15T06:23:15;18.25;16.75;12.75
72467;PMS3003;60626;43.582;1.470;2023-02-15T06:25:42;17.25;16.50;12.00
72467;PMS3003;60626;43.582;1.470;2023-02-15T06:28:10;17.50;17.00;12.00
72467;PMS3003;60626;43.582;1.470;2023-02-15T06:30:36;19.00;19.00;14.50
72467;PMS3003;60626;43.582;1.470;2023-02-15T06:33:03;20.75;17.50;12.75
72467;PMS3003;60626;43.582;1.470;2023-02-15T06:35:29;21.50;16.00;11.75
72467;PMS3003;60626;43.582;1.470;2023-02-15T06:37:56;19.75;18.25;12.25
72467;PMS3003;60626;43.582;1.470;2023-02-15T06:40:23;19.00;15.50;10.25
72467;PMS3003;60626;43.582;1.470;2023-02-15T06:42:49;19.50;17.75;12.75
72467;PMS3003;60626;43.582;1.470;2023-02-15T06:45:16;21.25;17.25;14.00
72467;PMS3003;60626;43.582;1.470;2023-02-15T06:47:43;20.50;18.50;13.75
72467;PMS3003;60626;43.582;1.470;2023-02-15T06:50:09;19.00;17.50;12.25
72467;PMS3003;60626;43.582;1.470;2023-02-15T06:52:36;18.00;15.50;11.25
72467;PMS3003;60626;43.582;1.470;2023-02-15T06:55:03;15.00;12.00;10.25
72467;PMS3003;60626;43.582;1.470;2023-02-15T06:57:30;20.00;17.75;12.00
72467;PMS3003;60626;43.582;1.470;2023-02-15T06:59:57;20.25;20.25;14.00
72467;PMS3003;60626;43.582;1.470;2023-02-15T07:02:24;22.00;21.00;14.50
72467;PMS3003;60626;43.582;1.470;2023-02-15T07:04:51;21.25;19.75;14.75
72467;PMS3003;60626;43.582;1.470;2023-02-15T07:07:18;21.50;17.75;12.75
72467;PMS3003;60626;43.582;1.470;2023-02-15T07:09:44;20.50;18.75;14.00
72467;PMS3003;60626;43.582;1.470;2023-02-15T07:12:11;15.00;11.25;7.25
72467;PMS3003;60626;43.582;1.470;2023-02-15T07:14:57;18.50;18.00;13.00
72467;PMS3003;60626;43.582;1.470;2023-02-15T07:17:24;21.00;19.50;14.00
72467;PMS3003;60626;43.582;1.470;2023-02-15T07:20:03;22.50;18.50;14.00
72467;PMS3003;60626;43.582;1.470;2023-02-15T07:22:31;22.00;20.25;15.25
72467;PMS3003;60626;43.582;1.470;2023-02-15T07:25:00;26.00;17.75;13.50
72467;PMS3003;60626;43.582;1.470;2023-02-15T07:27:27;20.25;19.00;15.50
72467;PMS3003;60626;43.582;1.470;2023-02-15T07:29:53;19.50;19.00;13.00
72467;PMS3003;60626;43.582;1.470;2023-02-15T07:32:20;23.75;19.75;15.00
72467;PMS3003;60626;43.582;1.470;2023-02-15T07:34:47;19.25;18.00;13.00
72467;PMS3003;60626;43.582;1.470;2023-02-15T07:37:13;18.00;18.00;13.50
72467;PMS3003;60626;43.582;1.470;2023-02-15T07:39:40;18.50;18.50;14.25
72467;PMS3003;60626;43.582;1.470;2023-02-15T07:42:06;24.75;19.50;13.75
72467;PMS3003;60626;43.582;1.470;2023-02-15T07:44:33;21.00;21.00;14.00
72467;PMS3003;60626;43.582;1.470;2023-02-15T07:47:00;23.25;18.00;13.25
72467;PMS3003;60626;43.582;1.470;2023-02-15T07:49:26;20.75;18.75;14.00
72467;PMS3003;60626;43.582;1.470;2023-02-15T07:51:53;20.00;18.00;13.00
72467;PMS3003;60626;43.582;1.470;2023-02-15T07:54:20;21.00;17.00;13.50
72467;PMS3003;60626;43.582;1.470;2023-02-15T07:56:46;17.00;17.00;12.50
72467;PMS3003;60626;43.582;1.470;2023-02-15T07:59:13;18.00;18.00;13.25
72467;PMS3003;60626;43.582;1.470;2023-02-15T08:01:39;17.75;16.50;13.25
72467;PMS3003;60626;43.582;1.470;2023-02-15T08:04:06;17.00;17.00;12.00
72467;PMS3003;60626;43.582;1.470;2023-02-15T08:06:35;16.00;15.00;9.25
72467;PMS3003;60626;43.582;1.470;2023-02-15T08:09:04;17.50;16.50;12.00
72467;PMS3003;60626;43.582;1.470;2023-02-15T08:11:33;20.75;20.75;13.25
72467;PMS3003;60626;43.582;1.470;2023-02-15T08:14:07;19.00;15.50;13.00
72467;PMS3003;60626;43.582;1.470;2023-02-15T08:19:08;18.00;16.50;12.00
72467;PMS3003;60626;43.582;1.470;2023-02-15T08:21:36;21.75;20.00;13.00
72467;PMS3003;60626;43.582;1.470;2023-02-15T08:24:08;19.00;17.50;13.00
72467;PMS3003;60626;43.582;1.470;2023-02-15T08:26:36;19.75;18.25;13.00
72467;PMS3003;60626;43.582;1.470;2023-02-15T08:29:07;17.00;15.00;11.00
72467;PMS3003;60626;43.582;1.470;2023-02-15T08:31:35;20.75;19.00;13.75
72467;PMS3003;60626;43.582;1.470;2023-02-15T08:34:04;19.00;18.50;13.00
72467;PMS3003;60626;43.582;1.470;2023-02-15T08:36:31;19.75;16.50;12.75
72467;PMS3003;60626;43.582;1.470;2023-02-15T08:38:59;18.25;18.25;13.25
72467;PMS3003;60626;43.582;1.470;2023-02-15T08:41:29;19.75;18.25;14.00
72467;PMS3003;60626;43.582;1.470;2023-02-15T08:43:58;19.25;17.25;11.50
72467;PMS3003;60626;43.582;1.470;2023-02-15T08:46:30;19.25;17.75;13.75
72467;PMS3003;60626;43.582;1.470;2023-02-15T08:48:58;19.00;17.50;13.00
72467;PMS3003;60626;43.582;1.470;2023-02-15T08:51:26;20.50;17.75;13.00
72467;PMS3003;60626;43.582;1.470;2023-02-15T08:53:56;18.50;15.25;12.50
72467;PMS3003;60626;43.582;1.470;2023-02-15T08:56:25;18.00;16.25;13.00
72467;PMS3003;60626;43.582;1.470;2023-02-15T08:58:54;21.75;20.00;14.25
72467;PMS3003;60626;43.582;1.470;2023-02-15T09:01:23;18.00;16.50;11.50
72467;PMS3003;60626;43.582;1.470;2023-02-15T09:03:54;14.75;14.25;11.25
72467;PMS3003;60626;43.582;1.470;2023-02-15T09:06:23;17.00;17.00;13.00
72467;PMS3003;60626;43.582;1.470;2023-02-15T09:08:50;12.00;12.00;9.50
72467;PMS3003;60626;43.582;1.470;2023-02-15T09:11:17;20.75;18.75;13.00
72467;PMS3003;60626;43.582;1.470;2023-02-15T09:16:26;16.00;14.00;11.00
72467;PMS3003;60626;43.582;1.470;2023-02-15T09:18:54;17.75;16.00;12.25
72467;PMS3003;60626;43.582;1.470;2023-02-15T09:21:24;16.00;14.75;11.25
72467;PMS3003;60626;43.582;1.470;2023-02-15T09:23:52;22.25;16.50;11.50
72467;PMS3003;60626;43.582;1.470;2023-02-15T09:26:23;17.00;17.00;12.00
72467;PMS3003;60626;43.582;1.470;2023-02-15T09:28:51;16.50;16.25;11.50
72467;PMS3003;60626;43.582;1.470;2023-02-15T09:31:22;19.00;14.50;11.00
72467;PMS3003;60626;43.582;1.470;2023-02-15T09:33:51;16.00;14.00;10.50
72467;PMS3003;60626;43.582;1.470;2023-02-15T09:36:20;14.00;11.50;10.25
72467;PMS3003;60626;43.582;1.470;2023-02-15T09:38:56;17.00;15.75;11.50
72467;PMS3003;60626;43.582;1.470;2023-02-15T09:58:52;16.75;13.00;9.75
72467;PMS3003;60626;43.582;1.470;2023-02-15T10:09:48;13.00;11.75;9.00
72467;PMS3003;60626;43.582;1.470;2023-02-15T10:15:10;16.75;15.75;11.25
72467;PMS3003;60626;43.582;1.470;2023-02-15T10:20:53;13.25;12.25;8.75
72467;PMS3003;60626;43.582;1.470;2023-02-15T10:26:08;15.00;15.00;11.00
72467;PMS3003;60626;43.582;1.470;2023-02-15T10:28:50;17.00;15.25;10.00
72467;PMS3003;60626;43.582;1.470;2023-02-15T10:31:22;10.25;9.25;8.25
72467;PMS3003;60626;43.582;1.470;2023-02-15T10:34:11;15.75;11.75;9.50
72467;PMS3003;60626;43.582;1.470;2023-02-15T10:37:01;15.50;12.50;9.50
72467;PMS3003;60626;43.582;1.470;2023-02-15T10:42:29;13.50;13.25;9.75
72467;PMS3003;60626;43.582;1.470;2023-02-15T10:50:48;14.25;10.75;9.00
72467;PMS3003;60626;43.582;1.470;2023-02-15T10:56:23;10.75;10.75;7.00
72467;PMS3003;60626;43.582;1.470;2023-02-15T11:01:55;15.75;12.25;8.75
72467;PMS3003;60626;43.582;1.470;2023-02-15T11:04:51;11.00;11.00;9.25
72467;PMS3003;60626;43.582;1.470;2023-02-15T11:07:32;14.00;14.00;9.00
72467;PMS3003;60626;43.582;1.470;2023-02-15T11:12:47;14.25;12.75;8.50
72467;PMS3003;60626;43.582;1.470;2023-02-15T11:15:35;14.75;12.25;9.00
72467;PMS3003;60626;43.582;1.470;2023-02-15T11:18:12;10.25;9.50;7.25
72467;PMS3003;60626;43.582;1.470;2023-02-15T11:21:04;14.50;14.50;10.75
72467;PMS3003;60626;43.582;1.470;2023-02-15T11:23:41;12.00;10.25;8.00
72467;PMS3003;60626;43.582;1.470;2023-02-15T11:26:36;11.75;11.75;8.50
72467;PMS3003;60626;43.582;1.470;2023-02-15T11:29:07;9.75;9.75;8.25
72467;PMS3003;60626;43.582;1.470;2023-02-15T11:32:02;8.75;8.75;6.50
72467;PMS3003;60626;43.582;1.470;2023-02-15T11:34:34;13.25;11.25;7.75
72467;PMS3003;60626;43.582;1.470;2023-02-15T11:37:07;12.00;10.50;7.50
72467;PMS3003;60626;43.582;1.470;2023-02-15T11:39:37;12.00;9.00;7.75
72467;PMS3003;60626;43.582;1.470;2023-02-15T11:42:06;12.00;10.50;8.75
72467;PMS3003;60626;43.582;1.470;2023-02-15T11:44:41;13.00;11.00;8.75
72467;PMS3003;60626;43.582;1.470;2023-02-15T11:47:40;8.00;8.00;7.00
72467;PMS3003;60626;43.582;1.470;2023-02-15T11:50:26;15.25;9.50;6.25
72467;PMS3003;60626;43.582;1.470;2023-02-15T11:52:59;14.50;12.25;8.25
72467;PMS3003;60626;43.582;1.470;2023-02-15T11:55:28;6.75;6.75;6.50
72467;PMS3003;60626;43.582;1.470;2023-02-15T11:58:01;7.75;5.50;3.50
72467;PMS3003;60626;43.582;1.470;2023-02-15T12:00:39;13.25;10.50;8.00
72467;PMS3003;60626;43.582;1.470;2023-02-15T12:03:12;11.25;11.25;9.25
72467;PMS3003;60626;43.582;1.470;2023-02-15T12:05:44;14.50;12.00;8.50
72467;PMS3003;60626;43.582;1.470;2023-02-15T12:08:19;13.00;10.50;8.50
72467;PMS3003;60626;43.582;1.470;2023-02-15T12:13:23;10.25;9.50;7.50
72467;PMS3003;60626;43.582;1.470;2023-02-15T12:15:50;10.75;9.00;7.25
72467;PMS3003;60626;43.582;1.470;2023-02-15T12:18:38;10.50;10.50;8.75
72467;PMS3003;60626;43.582;1.470;2023-02-15T12:21:10;11.50;10.25;8.25
72467;PMS3003;60626;43.582;1.470;2023-02-15T12:23:46;8.75;7.50;6.25
72467;PMS3003;60626;43.582;1.470;2023-02-15T12:26:14;9.50;9.00;7.50
72467;PMS3003;60626;43.582;1.470;2023-02-15T12:28:53;11.25;8.50;6.75
72467;PMS3003;60626;43.582;1.470;2023-02-15T12:31:40;10.75;10.75;8.25
72467;PMS3003;60626;43.582;1.470;2023-02-15T12:34:21;10.50;9.50;7.50
72467;PMS3003;60626;43.582;1.470;2023-02-15T12:36:51;10.00;9.50;7.75
72467;PMS3003;60626;43.582;1.470;2023-02-15T12:39:28;10.75;9.25;8.00
72467;PMS3003;60626;43.582;1.470;2023-02-15T12:44:33;11.25;11.25;8.75
72467;PMS3003;60626;43.582;1.470;2023-02-15T12:47:05;12.75;10.50;7.75
72467;PMS3003;60626;43.582;1.470;2023-02-15T12:49:44;10.50;10.00;7.75
72467;PMS3003;60626;43.582;1.470;2023-02-15T12:52:37;10.25;9.75;8.75
72467;PMS3003;60626;43.582;1.470;2023-02-15T12:55:41;8.75;8.75;6.75
72467;PMS3003;60626;43.582;1.470;2023-02-15T12:58:11;10.75;8.50;5.50
72467;PMS3003;60626;43.582;1.470;2023-02-15T13:00:42;13.50;13.50;9.25
72467;PMS3003;60626;43.582;1.470;2023-02-15T13:03:19;10.75;9.50;7.50
72467;PMS3003;60626;43.582;1.470;2023-02-15T13:05:49;10.00;10.00;7.25
72467;PMS3003;60626;43.582;1.470;2023-02-15T13:08:19;10.00;9.50;7.00
72467;PMS3003;60626;43.582;1.470;2023-02-15T13:10:55;7.50;7.50;6.50
72467;PMS3003;60626;43.582;1.470;2023-02-15T13:13:29;8.75;8.75;7.75
72467;PMS3003;60626;43.582;1.470;2023-02-15T13:15:59;13.75;11.75;9.25
72467;PMS3003;60626;43.582;1.470;2023-02-15T13:18:39;10.75;9.75;7.50
72467;PMS3003;60626;43.582;1.470;2023-02-15T13:21:10;7.25;5.00;3.25
72467;PMS3003;60626;43.582;1.470;2023-02-15T13:23:42;2.25;2.25;1.00
72467;PMS3003;60626;43.582;1.470;2023-02-15T13:26:17;10.50;9.25;7.50
72467;PMS3003;60626;43.582;1.470;2023-02-15T13:28:47;11.50;8.25;5.00
72467;PMS3003;60626;43.582;1.470;2023-02-15T13:31:20;15.50;11.50;9.25
72467;PMS3003;60626;43.582;1.470;2023-02-15T13:33:54;10.25;10.25;8.50
72467;PMS3003;60626;43.582;1.470;2023-02-15T13:36:30;5.75;5.75;5.00
72467;PMS3003;60626;43.582;1.470;2023-02-15T13:39:08;12.75;9.25;5.00
72467;PMS3003;60626;43.582;1.470;2023-02-15T13:41:52;11.00;9.75;8.00
72467;PMS3003;60626;43.582;1.470;2023-02-15T13:44:54;11.25;10.75;8.00
72467;PMS3003;60626;43.582;1.470;2023-02-15T13:56:16;13.00;9.75;7.75
72467;PMS3003;60626;43.582;1.470;2023-02-15T14:01:44;9.75;9.25;7.25
72467;PMS3003;60626;43.582;1.470;2023-02-15T14:04:23;10.25;10.25;7.75
72467;PMS3003;60626;43.582;1.470;2023-02-15T14:16:08;8.25;8.25;6.75
72467;PMS3003;60626;43.582;1.470;2023-02-15T14:18:41;6.00;6.00;6.00
72467;PMS3003;60626;43.582;1.470;2023-02-15T14:24:17;10.75;8.25;7.25
72467;PMS3003;60626;43.582;1.470;2023-02-15T14:29:48;9.00;7.25;6.25
72467;PMS3003;60626;43.582;1.470;2023-02-15T14:32:29;9.50;7.75;5.50
72467;PMS3003;60626;43.582;1.470;2023-02-15T14:35:00;9.50;7.50;6.25
72467;PMS3003;60626;43.582;1.470;2023-02-15T14:40:15;7.50;7.50;5.00
72467;PMS3003;60626;43.582;1.470;2023-02-15T14:43:22;7.25;7.25;6.25
72467;PMS3003;60626;43.582;1.470;2023-02-15T14:46:20;11.50;10.25;8.00
72467;PMS3003;60626;43.582;1.470;2023-02-15T14:49:12;10.75;10.75;8.25
72467;PMS3003;60626;43.582;1.470;2023-02-15T15:10:02;11.00;8.50;7.25
72467;PMS3003;60626;43.582;1.470;2023-02-15T15:12:53;10.75;9.00;7.25
72467;PMS3003;60626;43.582;1.470;2023-02-15T15:31:02;8.00;8.00;7.50
72467;PMS3003;60626;43.582;1.470;2023-02-15T15:45:21;11.00;6.75;5.00
72467;PMS3003;60626;43.582;1.470;2023-02-15T15:50:32;7.75;7.75;5.00
72467;PMS3003;60626;43.582;1.470;2023-02-15T15:53:00;8.50;8.50;6.00
72467;PMS3003;60626;43.582;1.470;2023-02-15T15:55:29;10.25;9.25;7.25
72467;PMS3003;60626;43.582;1.470;2023-02-15T15:57:59;9.25;7.25;6.50
72467;PMS3003;60626;43.582;1.470;2023-02-15T16:00:31;9.50;9.50;7.50
72467;PMS3003;60626;43.582;1.470;2023-02-15T16:03:03;11.00;8.00;6.25
72467;PMS3003;60626;43.582;1.470;2023-02-15T16:05:38;8.75;8.75;7.25
72467;PMS3003;60626;43.582;1.470;2023-02-15T16:08:05;8.25;8.25;6.25
72467;PMS3003;60626;43.582;1.470;2023-02-15T16:10:32;10.50;9.75;7.50
72467;PMS3003;60626;43.582;1.470;2023-02-15T16:13:00;10.75;10.75;8.50
72467;PMS3003;60626;43.582;1.470;2023-02-15T16:15:34;11.00;11.00;9.25
72467;PMS3003;60626;43.582;1.470;2023-02-15T16:18:10;11.75;11.75;8.50
72467;PMS3003;60626;43.582;1.470;2023-02-15T16:20:41;14.50;10.75;8.25
72467;PMS3003;60626;43.582;1.470;2023-02-15T16:23:40;9.25;9.25;7.00
72467;PMS3003;60626;43.582;1.470;2023-02-15T16:29:12;13.75;10.75;8.75
72467;PMS3003;60626;43.582;1.470;2023-02-15T16:31:41;14.75;11.00;8.25
72467;PMS3003;60626;43.582;1.470;2023-02-15T16:34:16;14.75;13.75;9.50
72467;PMS3003;60626;43.582;1.470;2023-02-15T16:36:43;9.25;6.25;6.25
72467;PMS3003;60626;43.582;1.470;2023-02-15T16:39:16;12.25;11.25;9.00
72467;PMS3003;60626;43.582;1.470;2023-02-15T16:41:45;13.75;11.00;8.25
72467;PMS3003;60626;43.582;1.470;2023-02-15T16:44:17;14.75;13.75;8.50
72467;PMS3003;60626;43.582;1.470;2023-02-15T16:46:51;13.25;11.50;8.75
72467;PMS3003;60626;43.582;1.470;2023-02-15T16:49:24;17.25;12.00;8.75
72467;PMS3003;60626;43.582;1.470;2023-02-15T16:52:00;8.25;8.25;6.25
72467;PMS3003;60626;43.582;1.470;2023-02-15T16:54:29;15.00;13.25;8.75
72467;PMS3003;60626;43.582;1.470;2023-02-15T16:56:57;11.75;11.75;9.75
72467;PMS3003;60626;43.582;1.470;2023-02-15T16:59:35;12.75;12.25;9.25
72467;PMS3003;60626;43.582;1.470;2023-02-15T17:02:04;14.50;10.50;8.50
72467;PMS3003;60626;43.582;1.470;2023-02-15T17:04:32;13.00;10.50;8.50
72467;PMS3003;60626;43.582;1.470;2023-02-15T17:07:15;13.00;13.00;9.75
72467;PMS3003;60626;43.582;1.470;2023-02-15T17:09:54;16.25;15.00;9.50
72467;PMS3003;60626;43.582;1.470;2023-02-15T17:20:38;15.50;13.50;9.75
72467;PMS3003;60626;43.582;1.470;2023-02-15T17:28:50;13.50;12.50;9.25
72467;PMS3003;60626;43.582;1.470;2023-02-15T17:31:19;16.75;16.75;13.00
72467;PMS3003;60626;43.582;1.470;2023-02-15T17:33:47;16.50;15.00;10.00